KTEB/TEB METAR and TAF weather

Enter ICAO airport designator
Station Type Date Time Source
KTEB METAR 2020/03/31 05:51 UTC NOAA

KTEB 310551Z 08005KT 4SM -RA BR OVC014 06/04 A2998 RMK AO2 DZE0457RAB0457 SLP151 P0006 60013 T00610044 10089 20061 58000


Station Type Date Time Source
KTEB Decoded METAR 2020/03/31 05:51 UTC NOAA

TETERBORO AIRPORT, NJ, United States (KTEB) 40-52N 74-03W 7M
Mar 31, 2020 - 01:51 AM EDT / 2020.03.31 0551 UTC
Wind: from the E (080 degrees) at 6 MPH (5 KT):0
Visibility: 4 mile(s):0
Sky conditions: overcast
Weather: light rain; mist
Precipitation last hour: 0.06 inches
Temperature: 43.0 F (6.1 C)
Dew Point: 39.9 F (4.4 C)
Relative Humidity: 88%
Pressure (altimeter): 29.98 in. Hg (1015 hPa)
Pressure tendency: 0.00 inches (0.0 hPa) lower than three hours ago
ob: KTEB 310551Z 08005KT 4SM -RA BR OVC014 06/04 A2998 RMK AO2 DZE0457RAB0457 SLP151 P0006 60013 T00610044 10089 20061 58000
cycle: 6

Station Type Date Time Source
KTEB TAF 2020/03/31 06:30 UTC NOAA

TAF KTEB 310528Z 3106/0112 VRB04KT P6SM OVC011
TEMPO 3106/3108 4SM -DZ BR
FM310800 04006KT P6SM VCSH OVC012
FM311300 07005KT P6SM OVC020
FM311700 10004KT P6SM BKN035
FM010000 VRB03KT P6SM BKN035
FM010400 04005KT P6SM FEW020 BKN030

Example: see airport list